Our Hubs

Gdansk im. Lecha Walesy
EPGD 260130Z 10005KT 8000 NSC 10/09 Q1030
Warszawa im. Chopina
EPWA 260130Z 07006KT 9000 FEW005 12/11 Q1028 TEMPO BKN004
  • EPWAAirport ICAO
  • Damian BelicaHUB Manager
  • SP-GLO , SP-OSO , SP-JOP , SP-WAW , LC-LXY , SP-OSPAircraft Based
  • ViewStats
Katowice Pyrzowice
EPKT 260130Z 06005KT 1800 MIFG BR OVC002 10/10 Q1026
  • EPKTAirport ICAO
  • Rafal PiotrowskiHUB Manager
  • SP-GSA , SP-WOD , SP-ASA , SP-MVM , SP-JJJAircraft Based
  • ViewStats
Dublin
EIDW 260130Z 12005KT 5000 BR MIFG FEW001 SCT240 06/06 Q1021 TEMPO 3000